Huvudsida
METAR-TAF:

METAR-TAF

Flygplatser :

Bric della Croce

Turin, Italien

latitud: 45-02N, longitud: 007-44E, höjd: 709 m

Aktuellt väderrapport

Denna rapport gjordes för 1 timme och 19 minuter sedan, klockan 12:55 UTC
Vind 4 kt från ost/sydost, varierande mellan syd och väst
Temperatur 25°C
Fuktighet 65%
Tryck 1021 hPa
Sikt 10 km eller mer
Inga moln under 1 500 m eller inga cumulonimbus

METAR: LIMK 241255Z 12004KT 180V270 CAVOK 25/18 Q1021 RMK SCT SCT180 VAL NIL VIS MIN 9999

Tid: 16:14 (14:14 UTC)


TAF: saknas

Aktuella väderrapporter och prognoser från 4000 flygplatser (METAR- och TAF-rapporter).

De tillgängliga stationerna syns som gula och röda prickar på kartan.

För musen över prickarna för att se namnen på stationerna.

Klicka sedan för att få väderrapporter och prognoser.

För att ändra kartan: Klicka på de gröna knapparna med ett svart kors på för att zooma in; den gröna knappen med ett streck på för att zooma ut; eller på de gröna pilarna för angränsande kartor.


METAR-TAF: